createdAt,value
2019-01-16T00:00:03.756Z,6.60
2019-01-16T00:01:32.152Z,6.60
2019-01-16T00:02:54.307Z,6.60
2019-01-16T00:04:16.636Z,6.60
2019-01-16T00:05:41.371Z,6.60
2019-01-16T00:06:55.669Z,6.60
2019-01-16T00:08:14.436Z,6.60
2019-01-16T00:09:38.133Z,6.60
2019-01-16T00:10:56.824Z,6.60
2019-01-16T00:12:17.653Z,6.60
2019-01-16T00:13:40.006Z,6.60
2019-01-16T00:14:52.270Z,6.60
2019-01-16T00:16:12.695Z,6.60
2019-01-16T00:17:33.258Z,6.60
2019-01-16T00:19:12.207Z,6.60
2019-01-16T00:20:31.200Z,6.60
2019-01-16T00:21:53.677Z,6.60
2019-01-16T00:23:29.334Z,6.60
2019-01-16T00:24:47.521Z,6.60
2019-01-16T00:26:09.690Z,6.60
2019-01-16T00:27:45.435Z,6.60
2019-01-16T00:29:05.391Z,6.60
2019-01-16T00:30:27.108Z,6.60
2019-01-16T00:31:41.655Z,6.60
2019-01-16T00:33:00.311Z,6.60
2019-01-16T00:34:30.181Z,6.60
2019-01-16T00:35:56.401Z,6.70
2019-01-16T00:37:18.860Z,6.70
2019-01-16T00:38:57.750Z,6.70
2019-01-16T00:40:22.430Z,6.70
2019-01-16T00:41:56.137Z,6.70
2019-01-16T00:43:18.284Z,6.70
2019-01-16T00:44:37.333Z,6.70
2019-01-16T00:46:07.524Z,6.70
2019-01-16T00:47:29.675Z,6.80
2019-01-16T00:48:43.764Z,6.80
2019-01-16T00:50:11.503Z,6.80
2019-01-16T00:51:46.429Z,6.80
2019-01-16T00:53:19.030Z,6.80
2019-01-16T00:54:32.844Z,6.80
2019-01-16T00:55:54.960Z,6.80
2019-01-16T00:57:17.207Z,6.80
2019-01-16T00:58:38.039Z,6.80
2019-01-16T01:00:01.731Z,6.90
2019-01-16T01:01:23.892Z,6.90
2019-01-16T01:02:46.606Z,6.90
2019-01-16T01:04:11.147Z,6.90
2019-01-16T01:05:33.600Z,7.00
2019-01-16T01:07:03.469Z,7.00
2019-01-16T01:08:28.831Z,7.00
2019-01-16T01:10:04.408Z,7.00
2019-01-16T01:11:26.638Z,7.00
2019-01-16T01:12:48.699Z,7.00
2019-01-16T01:14:10.948Z,7.00
2019-01-16T01:15:25.746Z,7.00
2019-01-16T01:16:49.433Z,7.00
2019-01-16T01:18:11.673Z,7.00
2019-01-16T01:19:34.075Z,7.00
2019-01-16T01:20:51.031Z,7.10
2019-01-16T01:22:29.920Z,7.10
2019-01-16T01:23:52.022Z,7.10
2019-01-16T01:25:08.329Z,7.10
2019-01-16T01:26:30.642Z,7.10
2019-01-16T01:27:46.797Z,7.10
2019-01-16T01:29:00.759Z,7.10
2019-01-16T01:30:24.085Z,7.10
2019-01-16T01:31:47.998Z,7.10
2019-01-16T01:33:14.043Z,7.10
2019-01-16T01:34:25.620Z,7.20
2019-01-16T01:35:54.896Z,7.20
2019-01-16T01:37:20.281Z,7.10
2019-01-16T01:38:42.521Z,7.10
2019-01-16T01:40:14.816Z,7.10
2019-01-16T01:41:37.013Z,7.10
2019-01-16T01:42:51.213Z,7.10
2019-01-16T01:44:13.369Z,7.10
2019-01-16T01:45:34.780Z,7.10
2019-01-16T01:46:49.731Z,7.20
2019-01-16T01:48:19.473Z,7.20
2019-01-16T01:50:01.397Z,7.10
2019-01-16T01:51:32.137Z,7.10
2019-01-16T01:52:54.907Z,7.10
2019-01-16T01:54:27.906Z,7.20
2019-01-16T01:55:49.839Z,7.20
2019-01-16T01:57:12.031Z,7.20
2019-01-16T01:58:24.415Z,7.20
2019-01-16T01:59:46.922Z,7.20
2019-01-16T02:01:19.443Z,7.20
2019-01-16T02:02:39.071Z,7.20
2019-01-16T02:04:02.835Z,7.20
2019-01-16T02:05:23.035Z,7.20
2019-01-16T02:06:44.162Z,7.20
2019-01-16T02:07:59.643Z,7.20
2019-01-16T02:09:24.458Z,7.30
2019-01-16T02:10:43.104Z,7.30
2019-01-16T02:12:12.811Z,7.30
2019-01-16T02:13:42.816Z,7.30
2019-01-16T02:15:12.303Z,7.30
2019-01-16T02:16:34.438Z,7.30
2019-01-16T02:17:52.570Z,7.30
2019-01-16T02:19:19.235Z,7.30
2019-01-16T02:20:40.262Z,7.30
2019-01-16T02:21:55.769Z,7.30
2019-01-16T02:23:15.377Z,7.30
2019-01-16T02:24:46.663Z,7.30
2019-01-16T02:26:13.168Z,7.30
2019-01-16T02:27:48.906Z,7.30
2019-01-16T02:29:11.399Z,7.30
2019-01-16T02:30:33.937Z,7.30
2019-01-16T02:31:56.272Z,7.30
2019-01-16T02:33:18.373Z,7.30
2019-01-16T02:34:32.249Z,7.30
2019-01-16T02:35:46.467Z,7.30
2019-01-16T02:37:01.103Z,7.30
2019-01-16T02:38:23.593Z,7.30
2019-01-16T02:39:45.940Z,7.30
2019-01-16T02:41:03.283Z,7.30
2019-01-16T02:42:27.475Z,7.30
2019-01-16T02:43:58.303Z,7.30
2019-01-16T02:45:19.067Z,7.30
2019-01-16T02:46:41.518Z,7.30
2019-01-16T02:47:57.226Z,7.30
2019-01-16T02:49:19.685Z,7.30
2019-01-16T02:50:30.717Z,7.30
2019-01-16T02:51:48.436Z,7.30
2019-01-16T02:53:10.885Z,7.30
2019-01-16T02:54:29.616Z,7.20
2019-01-16T02:55:44.906Z,7.20
2019-01-16T02:57:02.924Z,7.20
2019-01-16T02:58:17.366Z,7.20
2019-01-16T02:59:59.432Z,7.20
2019-01-16T03:01:15.188Z,7.20
2019-01-16T03:02:37.653Z,7.20
2019-01-16T03:03:53.232Z,7.20
2019-01-16T03:05:19.611Z,7.10
2019-01-16T03:06:38.469Z,7.10
2019-01-16T03:08:02.353Z,7.10
2019-01-16T03:09:20.512Z,7.10
2019-01-16T03:10:42.865Z,7.10
2019-01-16T03:12:15.745Z,7.10
2019-01-16T03:13:42.266Z,7.10
2019-01-16T03:14:57.134Z,7.10
2019-01-16T03:16:10.640Z,7.10
2019-01-16T03:17:33.046Z,7.10
2019-01-16T03:18:55.555Z,7.10
2019-01-16T03:20:11.766Z,7.10
2019-01-16T03:21:37.998Z,7.00
2019-01-16T03:22:54.801Z,7.00
2019-01-16T03:24:17.786Z,7.00
2019-01-16T03:25:59.792Z,7.00
2019-01-16T03:27:22.248Z,7.00
2019-01-16T03:28:34.132Z,7.00
2019-01-16T03:29:56.234Z,7.00
2019-01-16T03:31:25.651Z,7.00
2019-01-16T03:32:47.435Z,7.00
2019-01-16T03:34:13.366Z,6.90
2019-01-16T03:35:40.274Z,6.90
2019-01-16T03:37:05.039Z,6.90
2019-01-16T03:38:27.472Z,6.90
2019-01-16T03:39:45.882Z,6.90
2019-01-16T03:41:07.134Z,6.80
2019-01-16T03:42:35.483Z,6.80
2019-01-16T03:43:57.385Z,6.80
2019-01-16T03:45:07.330Z,6.80
2019-01-16T03:46:31.103Z,6.80
2019-01-16T03:47:53.488Z,6.80
2019-01-16T03:49:16.796Z,6.80
2019-01-16T03:50:31.184Z,6.80
2019-01-16T03:52:00.451Z,6.70
2019-01-16T03:53:17.299Z,6.70
2019-01-16T03:54:44.161Z,6.70
2019-01-16T03:56:06.694Z,6.70
2019-01-16T03:57:32.613Z,6.70
2019-01-16T03:58:55.644Z,6.70
2019-01-16T04:00:17.783Z,6.70
2019-01-16T04:01:39.090Z,6.70
2019-01-16T04:03:01.253Z,6.70
2019-01-16T04:04:22.574Z,6.60
2019-01-16T04:05:37.620Z,6.60
2019-01-16T04:06:57.357Z,6.60
2019-01-16T04:08:11.601Z,6.60
2019-01-16T04:09:33.959Z,6.60
2019-01-16T04:10:57.530Z,6.60
2019-01-16T04:12:21.061Z,6.60
2019-01-16T04:13:47.140Z,6.60
2019-01-16T04:15:09.361Z,6.60
2019-01-16T04:16:33.531Z,6.60
2019-01-16T04:17:55.720Z,6.60
2019-01-16T04:19:21.873Z,6.60
2019-01-16T04:20:41.700Z,6.60
2019-01-16T04:22:20.564Z,6.60
2019-01-16T04:23:33.436Z,6.60
2019-01-16T04:24:59.991Z,6.60
2019-01-16T04:26:14.623Z,6.60
2019-01-16T04:27:27.148Z,6.60
2019-01-16T04:28:49.198Z,6.60
2019-01-16T04:30:00.879Z,6.60
2019-01-16T04:31:28.899Z,6.60
2019-01-16T04:32:51.312Z,6.60
2019-01-16T04:34:10.816Z,6.60
2019-01-16T04:35:34.500Z,6.60
2019-01-16T04:36:56.741Z,6.60
2019-01-16T04:38:20.438Z,6.60
2019-01-16T04:39:37.916Z,6.60
2019-01-16T04:40:55.854Z,6.60
2019-01-16T04:42:11.973Z,6.50
2019-01-16T04:43:24.074Z,6.50
2019-01-16T04:44:47.216Z,6.50
2019-01-16T04:46:00.222Z,6.50
2019-01-16T04:47:18.261Z,6.50
2019-01-16T04:48:34.687Z,6.50
2019-01-16T04:49:56.933Z,6.50
2019-01-16T04:51:19.285Z,6.50
2019-01-16T04:52:36.920Z,6.60
2019-01-16T04:54:12.578Z,6.50
2019-01-16T04:55:45.968Z,6.50
2019-01-16T04:57:24.508Z,6.50
2019-01-16T04:58:48.683Z,6.50
2019-01-16T05:00:01.291Z,6.50
2019-01-16T05:01:23.818Z,6.50
2019-01-16T05:02:54.349Z,6.50
2019-01-16T05:04:13.860Z,6.50
2019-01-16T05:05:39.470Z,6.50
2019-01-16T05:06:53.285Z,6.50
2019-01-16T05:08:28.322Z,6.60
2019-01-16T05:09:52.288Z,6.60
2019-01-16T05:11:04.035Z,6.50
2019-01-16T05:12:26.219Z,6.50
2019-01-16T05:13:50.213Z,6.50
2019-01-16T05:15:13.885Z,6.50
2019-01-16T05:16:27.125Z,6.50
2019-01-16T05:18:03.103Z,6.50
2019-01-16T05:19:42.066Z,6.50
2019-01-16T05:21:11.736Z,6.50
2019-01-16T05:22:31.841Z,6.50
2019-01-16T05:23:54.377Z,6.50
2019-01-16T05:25:10.217Z,6.50
2019-01-16T05:26:23.899Z,6.50
2019-01-16T05:27:57.487Z,6.50
2019-01-16T05:29:19.918Z,6.60
2019-01-16T05:30:52.793Z,6.60
2019-01-16T05:32:18.718Z,6.50
2019-01-16T05:33:42.427Z,6.50
2019-01-16T05:35:04.806Z,6.50
2019-01-16T05:36:34.370Z,6.50
2019-01-16T05:38:04.047Z,6.50
2019-01-16T05:39:24.742Z,6.50
2019-01-16T05:40:54.640Z,6.50
2019-01-16T05:42:16.987Z,6.50
2019-01-16T05:43:41.764Z,6.50
2019-01-16T05:45:08.265Z,6.50
2019-01-16T05:46:30.452Z,6.50
2019-01-16T05:47:51.096Z,6.50
2019-01-16T05:49:33.060Z,6.50
2019-01-16T05:51:01.483Z,6.50
2019-01-16T05:52:23.389Z,6.50
2019-01-16T05:53:37.954Z,6.50
2019-01-16T05:55:00.096Z,6.50
2019-01-16T05:56:21.751Z,6.50
2019-01-16T05:57:42.291Z,6.50
2019-01-16T05:59:04.788Z,6.50
2019-01-16T06:00:38.405Z,6.50
2019-01-16T06:02:09.553Z,6.50
2019-01-16T06:03:33.293Z,6.50
2019-01-16T06:05:02.612Z,6.50
2019-01-16T06:06:26.139Z,6.50
2019-01-16T06:07:40.515Z,6.50
2019-01-16T06:08:57.449Z,6.50
2019-01-16T06:10:30.115Z,6.50
2019-01-16T06:11:52.394Z,6.50
2019-01-16T06:13:14.841Z,6.50
2019-01-16T06:14:37.733Z,6.60
2019-01-16T06:15:49.055Z,6.60
2019-01-16T06:17:20.232Z,6.60
2019-01-16T06:18:42.948Z,6.50
2019-01-16T06:20:04.628Z,6.50
2019-01-16T06:21:28.370Z,6.50
2019-01-16T06:22:45.807Z,6.50
2019-01-16T06:24:07.921Z,6.50
2019-01-16T06:25:26.710Z,6.50
2019-01-16T06:26:48.315Z,6.50
2019-01-16T06:28:15.499Z,6.50
2019-01-16T06:29:45.309Z,6.50
2019-01-16T06:31:10.405Z,6.50
2019-01-16T06:32:29.809Z,6.50
2019-01-16T06:33:46.287Z,6.50
2019-01-16T06:35:08.771Z,6.50
2019-01-16T06:36:30.279Z,6.50
2019-01-16T06:37:56.827Z,6.50
2019-01-16T06:39:15.342Z,6.50
2019-01-16T06:40:30.630Z,6.50
2019-01-16T06:41:57.142Z,6.50
2019-01-16T06:43:29.891Z,6.50
2019-01-16T06:44:52.303Z,6.50
2019-01-16T06:46:04.356Z,6.50
2019-01-16T06:47:18.192Z,6.50
2019-01-16T06:48:41.930Z,6.50
2019-01-16T06:50:16.489Z,6.50
2019-01-16T06:51:32.489Z,6.50
2019-01-16T06:52:58.466Z,6.50
2019-01-16T06:54:27.996Z,6.50
2019-01-16T06:55:43.490Z,6.50
2019-01-16T06:57:03.908Z,6.40
2019-01-16T06:58:21.093Z,6.40
2019-01-16T06:59:43.389Z,6.40
2019-01-16T07:01:07.180Z,6.40
2019-01-16T07:02:29.034Z,6.40
2019-01-16T07:03:51.203Z,6.40
2019-01-16T07:05:13.762Z,6.40
2019-01-16T07:06:30.117Z,6.40
2019-01-16T07:07:46.299Z,6.40
2019-01-16T07:09:22.215Z,6.40
2019-01-16T07:10:33.482Z,6.40
2019-01-16T07:11:57.224Z,6.40
2019-01-16T07:13:15.825Z,6.40
2019-01-16T07:14:48.635Z,6.40
2019-01-16T07:16:05.251Z,6.40
2019-01-16T07:17:20.690Z,6.40
2019-01-16T07:18:37.095Z,6.40
2019-01-16T07:19:59.243Z,6.40
2019-01-16T07:21:30.213Z,6.40
2019-01-16T07:22:54.754Z,6.40
2019-01-16T07:24:09.154Z,6.40
2019-01-16T07:25:30.797Z,6.40
2019-01-16T07:26:59.870Z,6.30
2019-01-16T07:28:15.348Z,6.30
2019-01-16T07:29:37.600Z,6.30
2019-01-16T07:31:01.346Z,6.30
2019-01-16T07:32:37.400Z,6.30
2019-01-16T07:34:01.083Z,6.30
2019-01-16T07:35:26.836Z,6.30
2019-01-16T07:37:06.396Z,6.30
2019-01-16T07:38:26.162Z,6.30
2019-01-16T07:39:44.325Z,6.30
2019-01-16T07:41:00.640Z,6.30
2019-01-16T07:42:20.291Z,6.30
2019-01-16T07:43:42.500Z,6.30
2019-01-16T07:44:55.690Z,6.30
2019-01-16T07:46:09.093Z,6.30
2019-01-16T07:47:32.780Z,6.30
2019-01-16T07:48:55.237Z,6.30
2019-01-16T07:50:29.522Z,6.30
2019-01-16T07:51:41.766Z,6.30
2019-01-16T07:53:05.556Z,6.30
2019-01-16T07:54:38.352Z,6.30
2019-01-16T07:55:57.165Z,6.30
2019-01-16T07:57:10.307Z,6.30
2019-01-16T07:58:32.509Z,6.30
2019-01-16T07:59:54.835Z,6.40
2019-01-16T08:01:07.483Z,6.40
2019-01-16T08:02:25.067Z,6.40
2019-01-16T08:03:48.780Z,6.30
2019-01-16T08:05:10.905Z,6.30
2019-01-16T08:06:29.956Z,6.40
2019-01-16T08:07:45.603Z,6.40
2019-01-16T08:09:06.195Z,6.40
2019-01-16T08:10:30.768Z,6.40
2019-01-16T08:11:49.708Z,6.30
2019-01-16T08:13:08.352Z,6.30
2019-01-16T08:14:30.907Z,6.30
2019-01-16T08:15:59.988Z,6.30
2019-01-16T08:17:17.139Z,6.40
2019-01-16T08:18:55.812Z,6.40
2019-01-16T08:20:24.674Z,6.40
2019-01-16T08:21:54.617Z,6.40
2019-01-16T08:23:27.998Z,6.40
2019-01-16T08:24:57.884Z,6.40
2019-01-16T08:26:15.639Z,6.40
2019-01-16T08:27:45.136Z,6.40
2019-01-16T08:29:07.664Z,6.40
2019-01-16T08:30:22.913Z,6.40
2019-01-16T08:31:48.891Z,6.40
2019-01-16T08:33:18.775Z,6.40
2019-01-16T08:34:36.162Z,6.40
2019-01-16T08:35:58.306Z,6.40
2019-01-16T08:37:33.631Z,6.40
2019-01-16T08:38:49.417Z,6.40
2019-01-16T08:40:11.914Z,6.40
2019-01-16T08:41:25.586Z,6.40
2019-01-16T08:42:42.968Z,6.40
2019-01-16T08:43:57.294Z,6.40
2019-01-16T08:45:20.998Z,6.40
2019-01-16T08:46:44.723Z,6.40
2019-01-16T08:48:20.988Z,6.40
2019-01-16T08:49:43.504Z,6.40
2019-01-16T08:51:08.587Z,6.50
2019-01-16T08:52:19.758Z,6.50
2019-01-16T08:53:42.196Z,6.50
2019-01-16T08:55:06.483Z,6.50
2019-01-16T08:56:30.366Z,6.50
2019-01-16T08:57:45.603Z,6.50
2019-01-16T08:59:04.615Z,6.50
2019-01-16T09:00:35.098Z,6.50
2019-01-16T09:01:58.835Z,6.50
2019-01-16T09:03:17.807Z,6.50
2019-01-16T09:04:36.861Z,6.50
2019-01-16T09:05:58.999Z,6.50
2019-01-16T09:07:13.386Z,6.50
2019-01-16T09:08:35.951Z,6.50
2019-01-16T09:10:00.943Z,6.60
2019-01-16T09:11:24.982Z,6.60
2019-01-16T09:12:47.126Z,6.60
2019-01-16T09:14:02.730Z,6.60
2019-01-16T09:15:36.404Z,6.60
2019-01-16T09:17:05.822Z,6.50
2019-01-16T09:18:36.466Z,6.50
2019-01-16T09:19:53.940Z,6.50
2019-01-16T09:21:06.165Z,6.50
2019-01-16T09:22:32.967Z,6.50
2019-01-16T09:23:55.419Z,6.50
2019-01-16T09:25:28.138Z,6.50
2019-01-16T09:26:50.617Z,6.40
2019-01-16T09:28:29.210Z,6.40
2019-01-16T09:29:56.865Z,6.40
2019-01-16T09:31:11.913Z,6.40
2019-01-16T09:32:24.595Z,6.40
2019-01-16T09:33:45.398Z,6.40
2019-01-16T09:35:07.239Z,6.40
2019-01-16T09:36:23.208Z,6.40
2019-01-16T09:37:44.834Z,6.40
2019-01-16T09:39:07.703Z,6.40
2019-01-16T09:40:21.675Z,6.30
2019-01-16T09:41:44.017Z,6.30
2019-01-16T09:43:06.464Z,6.30
2019-01-16T09:44:28.701Z,6.30
2019-01-16T09:45:47.665Z,6.30
2019-01-16T09:47:06.509Z,6.30
2019-01-16T09:48:30.016Z,6.30
2019-01-16T09:49:44.299Z,6.30
2019-01-16T09:51:08.005Z,6.30
2019-01-16T09:52:37.467Z,6.30
2019-01-16T09:54:01.736Z,6.30
2019-01-16T09:55:40.733Z,6.30
2019-01-16T09:57:02.647Z,6.30
2019-01-16T09:58:18.164Z,6.20
2019-01-16T09:59:40.515Z,6.20
2019-01-16T10:00:59.323Z,6.10
2019-01-16T10:02:21.787Z,6.10
2019-01-16T10:03:53.019Z,6.10
2019-01-16T10:05:16.733Z,6.10
2019-01-16T10:06:36.870Z,6.10
2019-01-16T10:08:01.705Z,6.10
2019-01-16T10:09:28.560Z,6.10
2019-01-16T10:10:48.469Z,6.10
2019-01-16T10:12:06.066Z,6.20
2019-01-16T10:13:35.922Z,6.10
2019-01-16T10:14:54.731Z,6.10
2019-01-16T10:16:11.951Z,6.10
2019-01-16T10:17:25.697Z,6.10
2019-01-16T10:18:42.654Z,6.10
2019-01-16T10:20:05.784Z,6.10
2019-01-16T10:21:17.703Z,6.20
2019-01-16T10:22:47.259Z,6.20
2019-01-16T10:24:25.938Z,6.20
2019-01-16T10:26:01.698Z,6.20
2019-01-16T10:27:23.910Z,6.20
2019-01-16T10:28:55.761Z,6.20
2019-01-16T10:30:25.363Z,6.20
2019-01-16T10:31:49.123Z,6.20
2019-01-16T10:33:12.206Z,6.30
2019-01-16T10:34:34.878Z,6.30
2019-01-16T10:35:49.011Z,6.30
2019-01-16T10:37:12.977Z,6.30
2019-01-16T10:38:37.393Z,6.30
2019-01-16T10:39:59.572Z,6.30
2019-01-16T10:41:35.213Z,6.40
2019-01-16T10:42:57.393Z,6.40
2019-01-16T10:44:28.111Z,6.40
2019-01-16T10:45:53.516Z,6.40
2019-01-16T10:47:14.822Z,6.40
2019-01-16T10:48:30.104Z,6.40
2019-01-16T10:49:54.945Z,6.40
2019-01-16T10:51:14.290Z,6.40
2019-01-16T10:52:47.923Z,6.40
2019-01-16T10:54:08.264Z,6.50
2019-01-16T10:55:32.019Z,6.50
2019-01-16T10:56:49.096Z,6.50
2019-01-16T10:58:21.999Z,6.50
2019-01-16T10:59:55.609Z,6.50
2019-01-16T11:01:07.364Z,6.50
2019-01-16T11:02:25.664Z,6.50
2019-01-16T11:03:44.875Z,6.60
2019-01-16T11:05:17.430Z,6.60
2019-01-16T11:06:36.834Z,6.60
2019-01-16T11:07:51.152Z,6.70
2019-01-16T11:09:04.700Z,6.70
2019-01-16T11:10:23.819Z,6.70
2019-01-16T11:11:46.236Z,6.70
2019-01-16T11:13:21.992Z,6.70
2019-01-16T11:14:54.752Z,6.70
2019-01-16T11:16:29.224Z,6.70
2019-01-16T11:17:52.498Z,6.70
2019-01-16T11:19:12.800Z,6.70
2019-01-16T11:20:33.183Z,6.70
2019-01-16T11:22:07.588Z,6.70
2019-01-16T11:23:29.935Z,6.70
2019-01-16T11:24:52.373Z,6.70
2019-01-16T11:26:08.608Z,6.70
2019-01-16T11:27:35.436Z,6.80
2019-01-16T11:29:04.135Z,6.80
2019-01-16T11:30:29.308Z,6.80
2019-01-16T11:31:46.287Z,6.80
2019-01-16T11:33:06.595Z,6.80
2019-01-16T11:34:25.360Z,6.80
2019-01-16T11:35:42.295Z,6.90
2019-01-16T11:36:58.729Z,6.90
2019-01-16T11:38:20.988Z,6.90
2019-01-16T11:39:33.166Z,6.90
2019-01-16T11:40:50.831Z,7.00
2019-01-16T11:42:04.198Z,7.00
2019-01-16T11:43:32.595Z,7.00
2019-01-16T11:44:50.682Z,7.00
2019-01-16T11:46:14.828Z,7.00
2019-01-16T11:47:33.879Z,7.00
2019-01-16T11:48:55.995Z,7.10
2019-01-16T11:50:18.225Z,7.10
2019-01-16T11:51:39.296Z,7.10
2019-01-16T11:52:51.896Z,7.10
2019-01-16T11:54:16.334Z,7.10
2019-01-16T11:55:35.554Z,7.10
2019-01-16T11:57:02.038Z,7.10
2019-01-16T11:58:25.480Z,7.10
2019-01-16T11:59:39.747Z,7.10
2019-01-16T12:01:21.552Z,7.10
2019-01-16T12:02:45.940Z,7.10
2019-01-16T12:04:09.652Z,7.10
2019-01-16T12:05:31.952Z,7.10
2019-01-16T12:06:57.906Z,7.10
2019-01-16T12:08:20.289Z,7.10
2019-01-16T12:09:44.068Z,7.10
2019-01-16T12:10:58.819Z,7.10
2019-01-16T12:12:20.261Z,7.10
2019-01-16T12:13:52.790Z,7.20
2019-01-16T12:15:15.244Z,7.20
2019-01-16T12:16:34.890Z,7.20
2019-01-16T12:17:52.766Z,7.20
2019-01-16T12:19:05.567Z,7.20
2019-01-16T12:20:20.415Z,7.20
2019-01-16T12:21:42.862Z,7.20
2019-01-16T12:22:55.727Z,7.10
2019-01-16T12:24:17.851Z,7.20
2019-01-16T12:25:39.830Z,7.20
2019-01-16T12:27:02.015Z,7.20
2019-01-16T12:28:31.972Z,7.10
2019-01-16T12:29:55.732Z,7.10
2019-01-16T12:31:16.962Z,7.10
2019-01-16T12:32:58.610Z,7.10
2019-01-16T12:34:14.274Z,7.20
2019-01-16T12:35:46.133Z,7.20
2019-01-16T12:37:08.494Z,7.20
2019-01-16T12:38:20.919Z,7.20
2019-01-16T12:39:38.804Z,7.20
2019-01-16T12:41:10.315Z,7.10
2019-01-16T12:42:32.400Z,7.10
2019-01-16T12:43:50.529Z,7.10
2019-01-16T12:45:12.864Z,7.10
2019-01-16T12:46:27.154Z,7.10
2019-01-16T12:47:59.598Z,7.10
2019-01-16T12:49:23.477Z,7.10
2019-01-16T12:50:36.943Z,7.10
2019-01-16T12:51:59.860Z,7.10
2019-01-16T12:53:22.203Z,7.10
2019-01-16T12:54:54.916Z,7.10
2019-01-16T12:56:11.053Z,7.10
2019-01-16T12:57:23.304Z,7.10
2019-01-16T12:58:42.719Z,7.10
2019-01-16T13:00:15.577Z,7.10
2019-01-16T13:01:34.676Z,7.10
2019-01-16T13:02:56.827Z,7.10
2019-01-16T13:04:12.240Z,7.10
2019-01-16T13:05:37.679Z,7.10
2019-01-16T13:06:53.011Z,7.10
2019-01-16T13:08:20.958Z,7.10
2019-01-16T13:09:37.927Z,7.10
2019-01-16T13:11:10.542Z,7.10
2019-01-16T13:12:34.834Z,7.00
2019-01-16T13:14:07.503Z,7.10
2019-01-16T13:15:46.458Z,7.10
2019-01-16T13:17:08.630Z,7.00
2019-01-16T13:18:30.893Z,7.10
2019-01-16T13:19:54.628Z,7.00
2019-01-16T13:21:27.212Z,7.00
2019-01-16T13:22:49.666Z,7.10
2019-01-16T13:24:11.817Z,7.00
2019-01-16T13:25:33.866Z,7.10
2019-01-16T13:26:56.050Z,7.10
2019-01-16T13:28:15.452Z,7.10
2019-01-16T13:29:37.572Z,7.10
2019-01-16T13:31:07.209Z,7.10
2019-01-16T13:32:30.286Z,7.10
2019-01-16T13:33:50.903Z,7.10
2019-01-16T13:35:23.812Z,7.10
2019-01-16T13:36:44.290Z,7.10
2019-01-16T13:38:23.258Z,7.10
2019-01-16T13:39:46.776Z,7.10
2019-01-16T13:41:09.337Z,7.10
2019-01-16T13:42:48.164Z,7.10
2019-01-16T13:44:02.774Z,7.10
2019-01-16T13:45:27.649Z,7.10
2019-01-16T13:46:54.287Z,7.10
2019-01-16T13:48:24.834Z,7.10
2019-01-16T13:49:47.035Z,7.10
2019-01-16T13:51:13.958Z,7.10
2019-01-16T13:52:35.941Z,7.10
2019-01-16T13:54:03.950Z,7.10
2019-01-16T13:55:28.563Z,7.10
2019-01-16T13:56:47.283Z,7.10
2019-01-16T13:58:11.720Z,7.00
2019-01-16T13:59:28.166Z,7.00
2019-01-16T14:00:48.476Z,7.00
2019-01-16T14:02:07.078Z,7.00
2019-01-16T14:03:18.278Z,7.00
2019-01-16T14:04:29.491Z,7.00
2019-01-16T14:05:53.157Z,7.00
2019-01-16T14:07:04.836Z,6.90
2019-01-16T14:08:37.382Z,6.90
2019-01-16T14:10:09.679Z,6.90
2019-01-16T14:11:39.280Z,7.00
2019-01-16T14:13:01.744Z,7.00
2019-01-16T14:14:23.742Z,6.90
2019-01-16T14:15:55.277Z,6.90
2019-01-16T14:17:16.756Z,6.90
2019-01-16T14:18:27.349Z,6.90
2019-01-16T14:19:53.504Z,6.90
2019-01-16T14:21:18.943Z,6.90
2019-01-16T14:22:33.579Z,6.90
2019-01-16T14:24:01.227Z,6.90
2019-01-16T14:25:17.263Z,6.90
2019-01-16T14:26:39.446Z,6.90
2019-01-16T14:27:55.248Z,6.90
2019-01-16T14:29:22.942Z,6.90
2019-01-16T14:30:45.209Z,6.90
2019-01-16T14:32:23.765Z,6.90
2019-01-16T14:33:52.984Z,6.90
2019-01-16T14:35:34.831Z,6.90
2019-01-16T14:36:58.556Z,6.90
2019-01-16T14:38:31.217Z,6.90
2019-01-16T14:39:57.894Z,6.80
2019-01-16T14:41:24.593Z,6.90
2019-01-16T14:42:39.302Z,6.90
2019-01-16T14:44:01.823Z,6.90
2019-01-16T14:45:30.050Z,6.80
2019-01-16T14:46:49.120Z,6.80
2019-01-16T14:48:00.572Z,6.80
2019-01-16T14:49:17.288Z,6.80
2019-01-16T14:50:30.257Z,6.80
2019-01-16T14:51:46.134Z,6.80
2019-01-16T14:53:04.414Z,6.80
2019-01-16T14:54:43.295Z,6.80
2019-01-16T14:56:09.792Z,6.80
2019-01-16T14:57:39.132Z,6.80
2019-01-16T14:58:53.522Z,6.80
2019-01-16T15:00:22.074Z,6.80
2019-01-16T15:01:38.978Z,6.80
2019-01-16T15:03:02.818Z,6.80
2019-01-16T15:04:21.814Z,6.80
2019-01-16T15:05:36.532Z,6.80
2019-01-16T15:06:48.897Z,6.70
2019-01-16T15:08:05.016Z,6.70
2019-01-16T15:09:29.695Z,6.70
2019-01-16T15:10:52.019Z,6.70
2019-01-16T15:12:15.942Z,6.70
2019-01-16T15:13:29.947Z,6.70
2019-01-16T15:15:03.805Z,6.70
2019-01-16T15:16:27.660Z,6.70
2019-01-16T15:17:49.851Z,6.70
2019-01-16T15:19:19.501Z,6.70
2019-01-16T15:20:33.798Z,6.70
2019-01-16T15:21:46.851Z,6.70
2019-01-16T15:23:08.440Z,6.70
2019-01-16T15:24:33.780Z,6.70
2019-01-16T15:26:00.696Z,6.70
2019-01-16T15:27:17.066Z,6.70
2019-01-16T15:28:40.145Z,6.70
2019-01-16T15:30:02.386Z,6.70
2019-01-16T15:31:29.147Z,6.70
2019-01-16T15:32:58.407Z,6.70
2019-01-16T15:34:19.757Z,6.70
2019-01-16T15:35:42.224Z,6.70
2019-01-16T15:37:04.540Z,6.70
2019-01-16T15:38:22.753Z,6.70
2019-01-16T15:39:45.311Z,6.60
2019-01-16T15:41:21.055Z,6.70
2019-01-16T15:42:45.785Z,6.70
2019-01-16T15:44:08.127Z,6.70
2019-01-16T15:45:23.575Z,6.70
2019-01-16T15:46:43.444Z,6.70
2019-01-16T15:48:08.904Z,6.70
2019-01-16T15:49:48.559Z,6.70
2019-01-16T15:51:11.342Z,6.60
2019-01-16T15:52:27.215Z,6.60
2019-01-16T15:53:50.750Z,6.60
2019-01-16T15:55:12.854Z,6.60
2019-01-16T15:56:39.842Z,6.60
2019-01-16T15:58:02.378Z,6.60
2019-01-16T15:59:15.909Z,6.60
2019-01-16T16:00:38.407Z,6.60
2019-01-16T16:02:11.059Z,6.60
2019-01-16T16:03:33.497Z,6.60
2019-01-16T16:05:09.176Z,6.60
2019-01-16T16:06:38.976Z,6.60
2019-01-16T16:07:49.944Z,6.60
2019-01-16T16:09:10.509Z,6.60
2019-01-16T16:10:28.460Z,6.60
2019-01-16T16:11:50.707Z,6.60
2019-01-16T16:13:14.386Z,6.60
2019-01-16T16:14:26.545Z,6.60
2019-01-16T16:15:48.769Z,6.60
2019-01-16T16:17:08.777Z,6.60
2019-01-16T16:18:25.987Z,6.60
2019-01-16T16:19:49.722Z,6.60
2019-01-16T16:21:31.492Z,6.60
2019-01-16T16:22:54.012Z,6.60
2019-01-16T16:24:07.244Z,6.60
2019-01-16T16:25:29.982Z,6.50
2019-01-16T16:26:57.390Z,6.50
2019-01-16T16:28:13.801Z,6.50
2019-01-16T16:29:30.259Z,6.50
2019-01-16T16:30:52.679Z,6.50
2019-01-16T16:32:14.793Z,6.50
2019-01-16T16:33:42.559Z,6.50
2019-01-16T16:35:12.979Z,6.50
2019-01-16T16:36:51.670Z,6.50
2019-01-16T16:38:18.547Z,6.50
2019-01-16T16:39:40.804Z,6.50
2019-01-16T16:41:00.779Z,6.50
2019-01-16T16:42:30.579Z,6.40
2019-01-16T16:43:53.520Z,6.40
2019-01-16T16:45:14.599Z,6.50
2019-01-16T16:46:29.179Z,6.50
2019-01-16T16:47:47.355Z,6.50
2019-01-16T16:49:09.772Z,6.50
2019-01-16T16:50:40.467Z,6.50
2019-01-16T16:52:25.890Z,6.50
2019-01-16T16:53:45.103Z,6.50
2019-01-16T16:55:06.887Z,6.40
2019-01-16T16:56:27.516Z,6.40
2019-01-16T16:57:45.375Z,6.40
2019-01-16T16:59:07.467Z,6.40
2019-01-16T17:00:30.058Z,6.40
2019-01-16T17:01:52.412Z,6.40
2019-01-16T17:03:14.640Z,6.40
2019-01-16T17:04:38.502Z,6.40
2019-01-16T17:05:55.193Z,6.40
2019-01-16T17:07:17.734Z,6.40
2019-01-16T17:08:45.863Z,6.40
2019-01-16T17:10:11.607Z,6.40
2019-01-16T17:11:31.162Z,6.40
2019-01-16T17:12:52.614Z,6.40
2019-01-16T17:14:14.979Z,6.40
2019-01-16T17:15:37.250Z,6.40
2019-01-16T17:16:51.380Z,6.40
2019-01-16T17:18:29.697Z,6.40
2019-01-16T17:19:49.746Z,6.40
2019-01-16T17:21:19.363Z,6.40
2019-01-16T17:22:38.985Z,6.40
2019-01-16T17:24:06.643Z,6.40
2019-01-16T17:25:21.181Z,6.40
2019-01-16T17:26:59.867Z,6.40
2019-01-16T17:28:22.302Z,6.40
2019-01-16T17:30:01.155Z,6.30
2019-01-16T17:31:23.197Z,6.30
2019-01-16T17:33:04.808Z,6.30
2019-01-16T17:34:28.098Z,6.30
2019-01-16T17:35:51.997Z,6.30
2019-01-16T17:37:17.368Z,6.30
2019-01-16T17:38:45.009Z,6.30
2019-01-16T17:40:14.557Z,6.30
2019-01-16T17:41:27.074Z,6.20
2019-01-16T17:42:56.529Z,6.30
2019-01-16T17:44:30.188Z,6.20
2019-01-16T17:46:06.193Z,6.30
2019-01-16T17:47:21.138Z,6.20
2019-01-16T17:48:53.450Z,6.20
2019-01-16T17:50:28.081Z,6.20
2019-01-16T17:51:51.452Z,6.20
2019-01-16T17:53:27.785Z,6.20
2019-01-16T17:55:04.808Z,6.30
2019-01-16T17:56:38.529Z,6.30
2019-01-16T17:58:09.303Z,6.20
2019-01-16T17:59:32.211Z,6.20
2019-01-16T18:01:02.653Z,6.20
2019-01-16T18:02:21.328Z,6.20
2019-01-16T18:03:43.558Z,6.20
2019-01-16T18:04:56.750Z,6.20
2019-01-16T18:06:21.258Z,6.20
2019-01-16T18:07:44.341Z,6.20
2019-01-16T18:09:06.698Z,6.20
2019-01-16T18:10:42.591Z,6.20
2019-01-16T18:11:59.743Z,6.20
2019-01-16T18:13:21.917Z,6.10
2019-01-16T18:14:53.398Z,6.10
2019-01-16T18:16:08.099Z,6.10
2019-01-16T18:17:30.574Z,6.10
2019-01-16T18:18:44.918Z,6.10
2019-01-16T18:20:26.592Z,6.10
2019-01-16T18:21:53.018Z,6.10
2019-01-16T18:23:10.296Z,6.10
2019-01-16T18:24:36.766Z,6.10